createdAt,value
2018-06-21T00:01:00.548Z,22.37
2018-06-21T00:03:29.615Z,22.33
2018-06-21T00:05:58.452Z,22.31
2018-06-21T00:08:27.085Z,22.22
2018-06-21T00:10:55.867Z,22.17
2018-06-21T00:13:24.485Z,22.21
2018-06-21T00:15:53.143Z,22.10
2018-06-21T00:18:21.830Z,22.11
2018-06-21T00:20:50.463Z,22.11
2018-06-21T00:23:19.153Z,22.10
2018-06-21T00:25:47.785Z,21.94
2018-06-21T00:28:16.460Z,21.99
2018-06-21T00:30:45.112Z,21.87
2018-06-21T00:33:13.764Z,21.75
2018-06-21T00:35:42.350Z,21.75
2018-06-21T00:38:11.011Z,21.78
2018-06-21T00:40:39.698Z,21.76
2018-06-21T00:43:08.557Z,21.66
2018-06-21T00:45:37.377Z,21.61
2018-06-21T00:48:06.092Z,21.60
2018-06-21T00:50:34.694Z,21.48
2018-06-21T00:53:03.468Z,21.48
2018-06-21T00:55:43.387Z,21.46
2018-06-21T00:58:12.135Z,21.44
2018-06-21T01:00:41.039Z,21.39
2018-06-21T01:03:09.576Z,21.47
2018-06-21T01:05:38.283Z,21.27
2018-06-21T01:08:06.948Z,21.16
2018-06-21T01:10:35.582Z,21.25
2018-06-21T01:13:04.189Z,21.12
2018-06-21T01:15:32.895Z,21.09
2018-06-21T01:18:01.746Z,21.10
2018-06-21T01:20:30.772Z,20.92
2018-06-21T01:22:59.387Z,20.91
2018-06-21T01:25:28.036Z,20.92
2018-06-21T01:27:56.738Z,20.93
2018-06-21T01:30:25.448Z,20.95
2018-06-21T01:32:54.004Z,20.87
2018-06-21T01:35:22.892Z,20.82
2018-06-21T01:37:51.619Z,20.89
2018-06-21T01:40:20.350Z,20.90
2018-06-21T01:42:49.055Z,21.00
2018-06-21T01:45:17.813Z,21.05
2018-06-21T01:47:46.536Z,20.91
2018-06-21T01:50:15.096Z,20.84
2018-06-21T01:52:44.156Z,20.54
2018-06-21T01:55:12.752Z,20.65
2018-06-21T01:57:41.453Z,20.68
2018-06-21T02:00:10.089Z,20.77
2018-06-21T02:02:38.676Z,20.75
2018-06-21T02:05:07.401Z,20.81
2018-06-21T02:07:36.017Z,20.85
2018-06-21T02:10:04.632Z,20.86
2018-06-21T02:12:33.358Z,20.80
2018-06-21T02:15:02.176Z,20.87
2018-06-21T02:17:30.995Z,20.81
2018-06-21T02:19:59.543Z,20.81
2018-06-21T02:22:28.284Z,20.67
2018-06-21T02:24:57.073Z,20.56
2018-06-21T02:27:26.597Z,20.65
2018-06-21T02:29:55.248Z,20.47
2018-06-21T02:32:24.169Z,20.47
2018-06-21T02:34:52.866Z,20.58
2018-06-21T02:37:21.589Z,20.56
2018-06-21T02:39:50.195Z,20.55
2018-06-21T02:42:18.724Z,20.52
2018-06-21T02:44:47.425Z,20.33
2018-06-21T02:47:16.102Z,20.41
2018-06-21T02:49:44.667Z,20.29
2018-06-21T02:52:13.353Z,20.28
2018-06-21T02:54:42.039Z,20.26
2018-06-21T02:57:10.685Z,20.16
2018-06-21T02:59:39.348Z,20.20
2018-06-21T03:02:08.275Z,20.33
2018-06-21T03:04:36.948Z,20.30
2018-06-21T03:07:05.572Z,20.29
2018-06-21T03:09:34.564Z,20.18
2018-06-21T03:12:03.244Z,20.22
2018-06-21T03:14:32.072Z,20.20
2018-06-21T03:17:00.670Z,20.08
2018-06-21T03:19:29.362Z,20.15
2018-06-21T03:21:58.395Z,20.15
2018-06-21T03:24:27.279Z,20.16
2018-06-21T03:26:55.935Z,20.09
2018-06-21T03:29:24.668Z,20.20
2018-06-21T03:31:53.321Z,20.12
2018-06-21T03:34:21.940Z,20.11
2018-06-21T03:36:50.623Z,19.92
2018-06-21T03:39:19.496Z,19.94
2018-06-21T03:41:48.093Z,19.84
2018-06-21T03:44:16.894Z,20.12
2018-06-21T03:46:45.882Z,20.10
2018-06-21T03:49:14.578Z,20.02
2018-06-21T03:51:43.246Z,20.17
2018-06-21T03:54:12.034Z,20.26
2018-06-21T03:56:41.246Z,20.16
2018-06-21T03:59:09.946Z,20.08
2018-06-21T04:01:38.748Z,19.82
2018-06-21T04:04:07.497Z,19.96
2018-06-21T04:06:36.476Z,20.20
2018-06-21T04:09:07.923Z,20.14
2018-06-21T04:11:36.789Z,20.17
2018-06-21T04:14:05.622Z,20.23
2018-06-21T04:16:34.703Z,20.36
2018-06-21T04:19:03.391Z,20.30
2018-06-21T04:21:32.203Z,20.41
2018-06-21T04:24:00.976Z,20.55
2018-06-21T04:26:29.746Z,20.49
2018-06-21T04:28:58.562Z,20.63
2018-06-21T04:31:27.444Z,20.75
2018-06-21T04:33:56.316Z,20.89
2018-06-21T04:36:25.885Z,20.97
2018-06-21T04:38:54.769Z,21.10
2018-06-21T04:41:23.771Z,21.28
2018-06-21T04:43:52.432Z,21.23
2018-06-21T04:46:21.350Z,21.11
2018-06-21T04:48:50.089Z,21.43
2018-06-21T04:51:18.938Z,21.35
2018-06-21T04:53:47.692Z,21.58
2018-06-21T04:56:16.580Z,21.65
2018-06-21T04:58:45.183Z,21.86
2018-06-21T05:01:14.032Z,21.83
2018-06-21T05:03:42.712Z,21.91
2018-06-21T05:06:11.404Z,21.86
2018-06-21T05:08:40.499Z,22.04
2018-06-21T05:11:09.181Z,22.21
2018-06-21T05:13:38.096Z,22.13
2018-06-21T05:16:06.776Z,22.43
2018-06-21T05:18:35.444Z,22.52
2018-06-21T05:21:04.088Z,22.66
2018-06-21T05:23:33.211Z,22.88
2018-06-21T05:26:01.976Z,23.13
2018-06-21T05:28:30.672Z,23.18
2018-06-21T05:30:59.409Z,23.16
2018-06-21T05:33:28.031Z,23.34
2018-06-21T05:35:56.755Z,23.46
2018-06-21T05:38:25.410Z,23.73
2018-06-21T05:40:54.801Z,23.87
2018-06-21T05:43:23.551Z,24.07
2018-06-21T05:45:52.521Z,24.30
2018-06-21T05:48:21.209Z,24.43
2018-06-21T05:50:50.101Z,24.71
2018-06-21T05:53:19.071Z,24.93
2018-06-21T05:55:47.732Z,24.82
2018-06-21T05:58:16.360Z,25.18
2018-06-21T06:00:44.942Z,25.33
2018-06-21T06:03:13.540Z,25.48
2018-06-21T06:05:42.111Z,25.73
2018-06-21T06:08:10.884Z,25.76
2018-06-21T06:10:39.482Z,25.97
2018-06-21T06:13:08.082Z,26.26
2018-06-21T06:15:37.058Z,26.41
2018-06-21T06:18:05.641Z,26.46
2018-06-21T06:20:34.232Z,26.59
2018-06-21T06:23:02.911Z,26.63
2018-06-21T06:25:31.455Z,26.83
2018-06-21T06:27:59.995Z,26.96
2018-06-21T06:30:28.850Z,27.10
2018-06-21T06:32:57.464Z,27.18
2018-06-21T06:35:28.888Z,27.18
2018-06-21T06:37:58.089Z,27.59
2018-06-21T06:40:26.666Z,27.40
2018-06-21T06:42:55.588Z,27.54
2018-06-21T06:45:24.942Z,27.69
2018-06-21T06:47:53.671Z,27.99
2018-06-21T06:50:22.316Z,27.95
2018-06-21T06:52:51.033Z,28.21
2018-06-21T06:55:19.841Z,28.44
2018-06-21T06:57:48.710Z,28.66
2018-06-21T07:00:17.329Z,28.96
2018-06-21T07:02:45.876Z,29.56
2018-06-21T07:05:14.444Z,29.74
2018-06-21T07:07:43.047Z,29.83
2018-06-21T07:10:11.628Z,30.10
2018-06-21T07:12:40.338Z,30.41
2018-06-21T07:15:09.569Z,30.54
2018-06-21T07:17:38.128Z,30.95
2018-06-21T07:20:07.228Z,30.81
2018-06-21T07:22:35.924Z,31.43
2018-06-21T07:25:04.664Z,31.41
2018-06-21T07:27:33.247Z,31.23
2018-06-21T07:30:01.788Z,31.63
2018-06-21T07:32:30.312Z,31.62
2018-06-21T07:34:58.897Z,31.28
2018-06-21T07:37:27.685Z,31.78
2018-06-21T07:39:56.577Z,30.57
2018-06-21T07:42:25.210Z,31.00
2018-06-21T07:44:53.759Z,31.00
2018-06-21T07:47:22.295Z,30.66
2018-06-21T07:49:51.339Z,29.99
2018-06-21T07:52:19.893Z,30.19
2018-06-21T07:54:48.576Z,30.07
2018-06-21T07:57:17.476Z,30.20
2018-06-21T07:59:46.018Z,30.75
2018-06-21T08:02:14.673Z,30.82
2018-06-21T08:04:43.411Z,31.29
2018-06-21T08:07:12.226Z,31.83
2018-06-21T08:09:40.758Z,31.53
2018-06-21T08:12:09.464Z,32.09
2018-06-21T08:14:38.140Z,32.08
2018-06-21T08:17:07.021Z,32.14
2018-06-21T08:19:35.957Z,32.61
2018-06-21T08:22:04.767Z,31.97
2018-06-21T08:24:33.600Z,30.97
2018-06-21T08:27:02.631Z,31.04
2018-06-21T08:29:31.312Z,31.42
2018-06-21T08:31:59.887Z,31.73
2018-06-21T08:34:29.094Z,31.36
2018-06-21T08:36:57.629Z,31.05
2018-06-21T08:39:26.180Z,30.69
2018-06-21T08:41:55.031Z,31.74
2018-06-21T08:44:23.663Z,31.35
2018-06-21T08:46:52.215Z,32.07
2018-06-21T08:49:20.987Z,32.10
2018-06-21T08:51:49.591Z,32.46
2018-06-21T08:54:18.113Z,32.34
2018-06-21T08:56:47.165Z,32.39
2018-06-21T08:59:15.750Z,33.03
2018-06-21T09:01:44.300Z,32.57
2018-06-21T09:04:13.771Z,33.05
2018-06-21T09:06:42.339Z,32.93
2018-06-21T09:09:11.109Z,33.13
2018-06-21T09:11:39.897Z,33.11
2018-06-21T09:14:08.480Z,33.23
2018-06-21T09:16:37.162Z,33.27
2018-06-21T09:19:05.923Z,34.02
2018-06-21T09:21:34.463Z,34.07
2018-06-21T09:24:03.008Z,34.43
2018-06-21T09:26:31.682Z,34.25
2018-06-21T09:29:00.285Z,33.64
2018-06-21T09:31:28.869Z,34.11
2018-06-21T09:33:57.636Z,34.02
2018-06-21T09:36:26.236Z,33.63
2018-06-21T09:39:00.004Z,33.50
2018-06-21T09:41:33.954Z,34.91
2018-06-21T09:44:07.887Z,34.83
2018-06-21T09:46:41.904Z,35.88
2018-06-21T09:49:10.472Z,36.40
2018-06-21T09:51:39.049Z,37.43
2018-06-21T09:54:07.604Z,37.86
2018-06-21T09:56:36.315Z,37.14
2018-06-21T09:59:04.891Z,38.02
2018-06-21T10:01:33.489Z,37.93
2018-06-21T10:04:02.249Z,37.28
2018-06-21T10:06:30.950Z,36.69
2018-06-21T10:08:59.596Z,36.06
2018-06-21T10:11:28.320Z,36.43
2018-06-21T10:13:56.958Z,35.43
2018-06-21T10:16:25.488Z,36.45
2018-06-21T10:18:54.336Z,35.72
2018-06-21T10:21:22.991Z,35.55
2018-06-21T10:23:51.731Z,36.15
2018-06-21T10:26:20.333Z,36.36
2018-06-21T10:28:48.927Z,36.75
2018-06-21T10:31:17.540Z,38.36
2018-06-21T10:33:46.219Z,38.83
2018-06-21T10:36:14.871Z,37.09
2018-06-21T10:38:43.487Z,37.12
2018-06-21T10:41:12.243Z,37.41
2018-06-21T10:43:40.867Z,37.19
2018-06-21T10:46:09.433Z,38.27
2018-06-21T10:48:38.323Z,38.24
2018-06-21T10:51:06.975Z,37.26
2018-06-21T10:53:35.497Z,38.01
2018-06-21T10:56:04.275Z,38.57
2018-06-21T10:58:33.035Z,37.83
2018-06-21T11:01:01.644Z,37.84
2018-06-21T11:03:30.314Z,38.19
2018-06-21T11:05:58.897Z,36.94
2018-06-21T11:08:27.432Z,37.36
2018-06-21T11:10:56.267Z,37.65
2018-06-21T11:13:24.852Z,38.44
2018-06-21T11:15:53.424Z,38.97
2018-06-21T11:18:22.020Z,36.49
2018-06-21T11:20:50.644Z,36.37
2018-06-21T11:23:19.303Z,37.07
2018-06-21T11:25:47.875Z,37.21
2018-06-21T11:28:16.453Z,37.15
2018-06-21T11:30:51.800Z,38.54
2018-06-21T11:33:20.481Z,39.02
2018-06-21T11:35:49.212Z,38.97
2018-06-21T11:38:17.768Z,38.58
2018-06-21T11:40:46.311Z,37.28
2018-06-21T11:43:14.831Z,37.97
2018-06-21T11:45:43.468Z,38.75
2018-06-21T11:48:12.040Z,37.65
2018-06-21T11:50:40.732Z,38.17
2018-06-21T11:53:09.319Z,37.82
2018-06-21T11:55:37.845Z,36.79
2018-06-21T11:58:06.484Z,37.25
2018-06-21T12:00:35.112Z,38.08
2018-06-21T12:03:03.804Z,37.76
2018-06-21T12:05:32.479Z,36.89
2018-06-21T12:08:01.207Z,38.00
2018-06-21T12:10:29.848Z,38.41
2018-06-21T12:12:58.572Z,38.90
2018-06-21T12:15:27.528Z,39.44
2018-06-21T12:17:56.111Z,40.23
2018-06-21T12:20:24.692Z,39.90
2018-06-21T12:22:53.289Z,38.57
2018-06-21T12:25:22.069Z,38.97
2018-06-21T12:27:50.692Z,38.74
2018-06-21T12:30:19.595Z,37.14
2018-06-21T12:32:48.547Z,36.66
2018-06-21T12:35:17.116Z,36.51
2018-06-21T12:37:45.684Z,36.56
2018-06-21T12:40:14.212Z,36.09
2018-06-21T12:42:42.969Z,36.17
2018-06-21T12:45:12.373Z,37.00
2018-06-21T12:47:40.956Z,38.18
2018-06-21T12:50:09.684Z,36.61
2018-06-21T12:52:38.631Z,35.02
2018-06-21T12:55:07.318Z,33.61
2018-06-21T12:57:35.911Z,33.58
2018-06-21T13:00:05.286Z,36.28
2018-06-21T13:02:34.356Z,38.12
2018-06-21T13:05:03.104Z,37.61
2018-06-21T13:07:32.078Z,36.76
2018-06-21T13:10:11.834Z,35.77
2018-06-21T13:12:51.995Z,35.20
2018-06-21T13:15:20.691Z,36.23
2018-06-21T13:17:49.349Z,36.71
2018-06-21T13:20:18.159Z,38.17
2018-06-21T13:22:46.865Z,38.03
2018-06-21T13:25:15.456Z,38.98
2018-06-21T13:27:44.107Z,40.26
2018-06-21T13:30:12.676Z,39.99
2018-06-21T13:32:41.282Z,39.35
2018-06-21T13:35:10.172Z,37.87
2018-06-21T13:37:39.425Z,37.64
2018-06-21T13:40:08.347Z,37.23
2018-06-21T13:42:37.269Z,37.70
2018-06-21T13:45:06.360Z,36.13
2018-06-21T13:47:34.972Z,35.47
2018-06-21T13:50:04.199Z,33.97
2018-06-21T13:52:32.735Z,32.74
2018-06-21T13:55:01.412Z,31.95
2018-06-21T13:57:30.112Z,31.57
2018-06-21T13:59:58.748Z,30.72
2018-06-21T14:02:27.397Z,30.24
2018-06-21T14:04:56.235Z,29.80
2018-06-21T14:07:25.160Z,29.83
2018-06-21T14:09:54.092Z,30.04
2018-06-21T14:12:23.224Z,30.90
2018-06-21T14:14:51.926Z,30.95
2018-06-21T14:17:20.575Z,30.97
2018-06-21T14:19:49.341Z,30.61
2018-06-21T14:22:17.946Z,30.47
2018-06-21T14:24:46.549Z,30.44
2018-06-21T14:27:15.139Z,30.16
2018-06-21T14:29:43.700Z,30.72
2018-06-21T14:32:12.483Z,30.66
2018-06-21T14:34:41.071Z,31.31
2018-06-21T14:37:09.652Z,31.01
2018-06-21T14:39:38.252Z,30.30
2018-06-21T14:42:06.954Z,30.78
2018-06-21T14:44:35.679Z,31.09
2018-06-21T14:49:38.903Z,29.80
2018-06-21T14:52:07.535Z,29.38
2018-06-21T14:54:36.116Z,29.27
2018-06-21T14:57:05.104Z,29.57
2018-06-21T14:59:33.736Z,29.36
2018-06-21T15:02:02.393Z,29.85
2018-06-21T15:04:31.013Z,30.31
2018-06-21T15:06:59.997Z,29.97
2018-06-21T15:09:28.792Z,30.39
2018-06-21T15:11:57.658Z,30.21
2018-06-21T15:14:26.293Z,30.20
2018-06-21T15:16:54.896Z,29.82
2018-06-21T15:19:23.759Z,29.55
2018-06-21T15:21:52.403Z,29.64
2018-06-21T15:24:20.963Z,29.95
2018-06-21T15:26:49.672Z,29.90
2018-06-21T15:29:18.609Z,29.36
2018-06-21T15:31:47.384Z,29.62
2018-06-21T15:34:15.977Z,29.53
2018-06-21T15:36:44.661Z,29.15
2018-06-21T15:39:20.475Z,28.73
2018-06-21T15:41:49.023Z,28.41
2018-06-21T15:44:18.094Z,27.94
2018-06-21T15:46:46.697Z,27.77
2018-06-21T15:49:15.823Z,27.25
2018-06-21T15:51:44.671Z,27.39
2018-06-21T15:54:13.318Z,27.95
2018-06-21T15:56:41.910Z,27.84
2018-06-21T15:59:10.940Z,27.33
2018-06-21T16:01:39.610Z,27.36
2018-06-21T16:04:08.603Z,27.03
2018-06-21T16:06:37.139Z,27.10
2018-06-21T16:09:08.156Z,27.01
2018-06-21T16:11:36.829Z,26.85
2018-06-21T16:14:05.428Z,26.79
2018-06-21T16:16:34.082Z,26.81
2018-06-21T16:19:02.663Z,26.52
2018-06-21T16:21:31.256Z,26.39
2018-06-21T16:23:59.784Z,26.22
2018-06-21T16:26:30.483Z,25.98
2018-06-21T16:28:59.443Z,25.59
2018-06-21T16:31:28.042Z,25.32
2018-06-21T16:33:56.882Z,25.32
2018-06-21T16:36:25.419Z,25.43
2018-06-21T16:38:54.028Z,25.58
2018-06-21T16:41:22.584Z,25.56
2018-06-21T16:43:51.178Z,25.59
2018-06-21T16:46:25.270Z,25.62
2018-06-21T16:48:55.417Z,25.34
2018-06-21T16:51:27.360Z,25.48
2018-06-21T16:53:57.971Z,25.58
2018-06-21T16:56:26.584Z,25.62
2018-06-21T16:58:55.517Z,25.50
2018-06-21T17:01:24.067Z,25.53
2018-06-21T17:03:52.688Z,25.47
2018-06-21T17:06:21.314Z,25.54
2018-06-21T17:08:49.876Z,25.32
2018-06-21T17:11:18.441Z,25.44
2018-06-21T17:13:47.064Z,25.45
2018-06-21T17:16:15.647Z,25.60
2018-06-21T17:18:44.237Z,25.39
2018-06-21T17:21:13.009Z,25.19
2018-06-21T17:23:41.583Z,25.20
2018-06-21T17:26:10.174Z,25.40
2018-06-21T17:28:38.748Z,25.15
2018-06-21T17:31:07.323Z,25.22
2018-06-21T17:33:36.154Z,25.30
2018-06-21T17:36:04.816Z,25.33
2018-06-21T17:38:34.127Z,24.80
2018-06-21T17:41:04.723Z,24.50
2018-06-21T17:43:35.491Z,24.58
2018-06-21T17:46:04.236Z,24.35
2018-06-21T17:48:32.888Z,24.41
2018-06-21T17:51:01.962Z,24.35
2018-06-21T17:53:31.176Z,24.20
2018-06-21T17:56:01.297Z,23.81
2018-06-21T17:58:32.251Z,23.89
2018-06-21T18:01:01.208Z,23.38
2018-06-21T18:03:30.261Z,23.21
2018-06-21T18:05:59.084Z,22.84
2018-06-21T18:08:27.768Z,22.82
2018-06-21T18:10:56.851Z,22.67
2018-06-21T18:13:25.496Z,22.55
2018-06-21T18:15:54.261Z,22.66
2018-06-21T18:18:22.888Z,22.45
2018-06-21T18:20:51.567Z,22.32
2018-06-21T18:23:20.384Z,22.51
2018-06-21T18:25:48.977Z,22.40
2018-06-21T18:28:17.649Z,22.49
2018-06-21T18:30:46.467Z,22.47
2018-06-21T18:33:14.990Z,22.35
2018-06-21T18:35:44.011Z,22.40
2018-06-21T18:38:12.553Z,22.26
2018-06-21T18:40:41.159Z,22.30
2018-06-21T18:43:33.666Z,22.07
2018-06-21T18:46:23.608Z,21.83
2018-06-21T18:49:14.340Z,22.06
2018-06-21T18:51:59.270Z,22.14
2018-06-21T18:54:46.670Z,22.08
2018-06-21T18:57:27.070Z,21.93
2018-06-21T19:00:12.621Z,21.90
2018-06-21T19:02:59.285Z,21.96
2018-06-21T19:05:47.362Z,21.84
2018-06-21T19:08:35.722Z,21.62
2018-06-21T19:11:19.795Z,21.45
2018-06-21T19:13:56.195Z,21.27
2018-06-21T19:16:25.056Z,21.06
2018-06-21T19:18:53.752Z,21.19
2018-06-21T19:21:22.572Z,21.18
2018-06-21T19:23:51.243Z,20.62
2018-06-21T19:26:20.061Z,20.97
2018-06-21T19:28:48.619Z,21.09
2018-06-21T19:31:17.513Z,21.06
2018-06-21T19:33:46.693Z,21.04
2018-06-21T19:36:15.315Z,21.01
2018-06-21T19:38:44.016Z,20.98
2018-06-21T19:41:12.679Z,20.86
2018-06-21T19:43:41.529Z,20.79
2018-06-21T19:46:10.368Z,20.85
2018-06-21T19:48:38.942Z,20.80
2018-06-21T19:51:07.535Z,20.70
2018-06-21T19:53:36.215Z,20.44
2018-06-21T19:56:05.400Z,20.40
2018-06-21T19:58:34.101Z,20.56
2018-06-21T20:01:03.044Z,20.29
2018-06-21T20:03:31.756Z,20.31
2018-06-21T20:06:00.376Z,20.30
2018-06-21T20:08:28.948Z,20.42
2018-06-21T20:11:03.000Z,20.29
2018-06-21T20:13:43.359Z,20.04
2018-06-21T20:16:12.008Z,20.03
2018-06-21T20:18:41.458Z,20.17
2018-06-21T20:21:14.121Z,20.05
2018-06-21T20:23:44.672Z,19.98
2018-06-21T20:26:13.857Z,20.15
2018-06-21T20:28:44.771Z,19.96
2018-06-21T20:31:17.901Z,19.82
2018-06-21T20:33:48.211Z,19.89
2018-06-21T20:36:17.726Z,19.69
2018-06-21T20:38:46.931Z,19.39
2018-06-21T20:41:15.607Z,19.59
2018-06-21T20:43:44.651Z,19.29
2018-06-21T20:46:13.356Z,19.05
2018-06-21T20:48:42.261Z,19.00
2018-06-21T20:51:13.318Z,18.87
2018-06-21T20:53:43.379Z,18.68
2018-06-21T20:56:12.383Z,18.58
2018-06-21T20:58:41.325Z,18.57
2018-06-21T21:01:10.419Z,18.59
2018-06-21T21:03:39.045Z,18.39
2018-06-21T21:06:07.635Z,18.26
2018-06-21T21:08:36.135Z,18.24
2018-06-21T21:11:04.695Z,18.14
2018-06-21T21:13:33.368Z,18.06
2018-06-21T21:16:01.987Z,17.91
2018-06-21T21:18:30.531Z,17.70
2018-06-21T21:20:59.116Z,17.75
2018-06-21T21:23:28.519Z,17.70
2018-06-21T21:25:57.016Z,17.69
2018-06-21T21:28:26.118Z,17.60
2018-06-21T21:30:55.261Z,17.49
2018-06-21T21:33:23.875Z,17.43
2018-06-21T21:35:52.473Z,17.27
2018-06-21T21:38:21.039Z,17.24
2018-06-21T21:40:49.648Z,17.18
2018-06-21T21:43:18.196Z,17.14
2018-06-21T21:45:46.968Z,16.91
2018-06-21T21:48:15.585Z,17.11
2018-06-21T21:50:44.159Z,16.88
2018-06-21T21:53:12.773Z,16.90
2018-06-21T21:55:41.631Z,16.82
2018-06-21T21:58:10.576Z,16.74
2018-06-21T22:00:47.635Z,16.71
2018-06-21T22:03:16.836Z,16.68
2018-06-21T22:05:45.755Z,16.60
2018-06-21T22:08:14.374Z,16.60
2018-06-21T22:10:44.272Z,16.50
2018-06-21T22:13:13.739Z,16.35
2018-06-21T22:15:42.872Z,16.40
2018-06-21T22:18:12.299Z,16.31
2018-06-21T22:20:41.321Z,16.15
2018-06-21T22:23:10.244Z,16.13
2018-06-21T22:25:38.863Z,16.12
2018-06-21T22:28:07.712Z,15.93
2018-06-21T22:30:36.359Z,15.74
2018-06-21T22:33:04.920Z,15.89
2018-06-21T22:35:33.947Z,15.79
2018-06-21T22:38:02.572Z,15.78
2018-06-21T22:40:31.553Z,15.72
2018-06-21T22:43:00.188Z,15.69
2018-06-21T22:45:29.540Z,15.77
2018-06-21T22:47:58.759Z,15.79
2018-06-21T22:50:27.831Z,15.69
2018-06-21T22:52:56.787Z,15.70
2018-06-21T22:55:25.351Z,15.78
2018-06-21T22:57:54.499Z,15.61
2018-06-21T23:00:23.051Z,15.64
2018-06-21T23:02:51.617Z,15.69
2018-06-21T23:05:20.467Z,15.49
2018-06-21T23:07:49.320Z,15.45
2018-06-21T23:10:18.027Z,15.48
2018-06-21T23:12:46.584Z,15.35
2018-06-21T23:15:15.735Z,15.40
2018-06-21T23:17:44.507Z,15.34
2018-06-21T23:20:13.028Z,15.31
2018-06-21T23:22:41.556Z,15.21
2018-06-21T23:25:10.216Z,15.33
2018-06-21T23:27:38.727Z,15.12
2018-06-21T23:30:07.299Z,15.13
2018-06-21T23:32:35.816Z,15.09
2018-06-21T23:35:04.438Z,15.07
2018-06-21T23:37:33.027Z,15.04
2018-06-21T23:40:01.527Z,15.10
2018-06-21T23:42:30.107Z,15.08
2018-06-21T23:44:58.665Z,15.07
2018-06-21T23:47:27.271Z,14.97
2018-06-21T23:49:56.175Z,14.95
2018-06-21T23:52:24.667Z,14.90
2018-06-21T23:54:53.236Z,14.89
2018-06-21T23:57:21.752Z,14.79
2018-06-21T23:59:50.671Z,14.71
